sensor_id;sensor_type;location;lat;lon;timestamp;P1;durP1;ratioP1;P2;durP2;ratioP2
19679;SDS011;9989;48.962;9.182;2022-07-17T00:00:36;9.53;;;5.80;;
19679;SDS011;9989;48.962;9.182;2022-07-17T00:03:05;8.67;;;5.47;;
19679;SDS011;9989;48.962;9.182;2022-07-17T00:05:31;8.50;;;5.40;;
19679;SDS011;9989;48.962;9.182;2022-07-17T00:07:56;8.37;;;4.93;;
19679;SDS011;9989;48.962;9.182;2022-07-17T00:10:23;8.60;;;5.10;;
19679;SDS011;9989;48.962;9.182;2022-07-17T00:12:48;10.80;;;6.10;;
19679;SDS011;9989;48.962;9.182;2022-07-17T00:15:14;8.60;;;5.40;;
19679;SDS011;9989;48.962;9.182;2022-07-17T00:17:40;9.80;;;4.97;;
19679;SDS011;9989;48.962;9.182;2022-07-17T00:20:06;9.40;;;5.27;;
19679;SDS011;9989;48.962;9.182;2022-07-17T00:22:32;9.63;;;5.77;;
19679;SDS011;9989;48.962;9.182;2022-07-17T00:24:58;9.80;;;5.63;;
19679;SDS011;9989;48.962;9.182;2022-07-17T00:27:24;9.57;;;5.70;;
19679;SDS011;9989;48.962;9.182;2022-07-17T00:29:49;9.70;;;5.60;;
19679;SDS011;9989;48.962;9.182;2022-07-17T00:32:15;9.13;;;5.47;;
19679;SDS011;9989;48.962;9.182;2022-07-17T00:34:41;10.23;;;6.33;;
19679;SDS011;9989;48.962;9.182;2022-07-17T00:37:07;11.13;;;7.33;;
19679;SDS011;9989;48.962;9.182;2022-07-17T00:39:32;11.90;;;7.00;;
19679;SDS011;9989;48.962;9.182;2022-07-17T00:41:58;10.43;;;6.83;;
19679;SDS011;9989;48.962;9.182;2022-07-17T00:44:25;10.97;;;6.73;;
19679;SDS011;9989;48.962;9.182;2022-07-17T00:46:51;11.07;;;6.77;;
19679;SDS011;9989;48.962;9.182;2022-07-17T00:49:17;10.57;;;6.33;;
19679;SDS011;9989;48.962;9.182;2022-07-17T00:51:43;12.37;;;6.67;;
19679;SDS011;9989;48.962;9.182;2022-07-17T00:54:08;13.80;;;6.73;;
19679;SDS011;9989;48.962;9.182;2022-07-17T00:56:36;12.50;;;7.50;;
19679;SDS011;9989;48.962;9.182;2022-07-17T00:59:03;12.00;;;7.63;;
19679;SDS011;9989;48.962;9.182;2022-07-17T01:01:30;11.53;;;7.13;;
19679;SDS011;9989;48.962;9.182;2022-07-17T01:03:56;9.90;;;5.90;;
19679;SDS011;9989;48.962;9.182;2022-07-17T01:06:22;12.03;;;6.73;;
19679;SDS011;9989;48.962;9.182;2022-07-17T01:08:47;10.60;;;6.80;;
19679;SDS011;9989;48.962;9.182;2022-07-17T01:11:13;13.23;;;7.53;;
19679;SDS011;9989;48.962;9.182;2022-07-17T01:13:39;12.47;;;6.70;;
19679;SDS011;9989;48.962;9.182;2022-07-17T01:16:04;13.47;;;7.07;;
19679;SDS011;9989;48.962;9.182;2022-07-17T01:18:31;10.53;;;6.37;;
19679;SDS011;9989;48.962;9.182;2022-07-17T01:21:02;11.03;;;7.30;;
19679;SDS011;9989;48.962;9.182;2022-07-17T01:23:32;17.73;;;6.97;;
19679;SDS011;9989;48.962;9.182;2022-07-17T01:25:58;19.50;;;8.47;;
19679;SDS011;9989;48.962;9.182;2022-07-17T01:28:24;15.20;;;8.57;;
19679;SDS011;9989;48.962;9.182;2022-07-17T01:30:50;14.83;;;8.20;;
19679;SDS011;9989;48.962;9.182;2022-07-17T01:33:17;16.17;;;8.53;;
19679;SDS011;9989;48.962;9.182;2022-07-17T01:35:43;13.70;;;8.40;;
19679;SDS011;9989;48.962;9.182;2022-07-17T01:38:09;13.90;;;8.13;;
19679;SDS011;9989;48.962;9.182;2022-07-17T01:40:35;13.00;;;7.20;;
19679;SDS011;9989;48.962;9.182;2022-07-17T01:43:01;14.23;;;8.07;;
19679;SDS011;9989;48.962;9.182;2022-07-17T01:45:26;16.53;;;8.43;;
19679;SDS011;9989;48.962;9.182;2022-07-17T01:47:52;15.30;;;7.73;;
19679;SDS011;9989;48.962;9.182;2022-07-17T01:50:18;12.57;;;7.30;;
19679;SDS011;9989;48.962;9.182;2022-07-17T01:52:44;14.17;;;7.73;;
19679;SDS011;9989;48.962;9.182;2022-07-17T01:55:10;15.03;;;8.63;;
19679;SDS011;9989;48.962;9.182;2022-07-17T01:57:38;16.50;;;11.10;;
19679;SDS011;9989;48.962;9.182;2022-07-17T02:00:04;20.57;;;12.43;;
19679;SDS011;9989;48.962;9.182;2022-07-17T02:02:32;22.90;;;13.27;;
19679;SDS011;9989;48.962;9.182;2022-07-17T02:04:58;24.47;;;15.03;;
19679;SDS011;9989;48.962;9.182;2022-07-17T02:07:24;21.77;;;13.63;;
19679;SDS011;9989;48.962;9.182;2022-07-17T02:09:49;21.07;;;12.77;;
19679;SDS011;9989;48.962;9.182;2022-07-17T02:12:15;20.97;;;12.20;;
19679;SDS011;9989;48.962;9.182;2022-07-17T02:14:41;18.23;;;11.17;;
19679;SDS011;9989;48.962;9.182;2022-07-17T02:17:06;16.33;;;8.97;;
19679;SDS011;9989;48.962;9.182;2022-07-17T02:19:32;15.87;;;7.40;;
19679;SDS011;9989;48.962;9.182;2022-07-17T02:21:57;12.13;;;7.30;;
19679;SDS011;9989;48.962;9.182;2022-07-17T02:24:23;11.00;;;6.50;;
19679;SDS011;9989;48.962;9.182;2022-07-17T02:26:49;12.33;;;6.33;;
19679;SDS011;9989;48.962;9.182;2022-07-17T02:29:14;9.90;;;6.10;;
19679;SDS011;9989;48.962;9.182;2022-07-17T02:31:40;11.83;;;6.70;;
19679;SDS011;9989;48.962;9.182;2022-07-17T02:34:06;10.60;;;6.13;;
19679;SDS011;9989;48.962;9.182;2022-07-17T02:36:31;10.57;;;6.23;;
19679;SDS011;9989;48.962;9.182;2022-07-17T02:38:57;10.90;;;6.57;;
19679;SDS011;9989;48.962;9.182;2022-07-17T02:41:23;11.63;;;5.80;;
19679;SDS011;9989;48.962;9.182;2022-07-17T02:43:48;11.97;;;6.93;;
19679;SDS011;9989;48.962;9.182;2022-07-17T02:46:14;12.50;;;6.67;;
19679;SDS011;9989;48.962;9.182;2022-07-17T02:48:43;11.37;;;6.30;;
19679;SDS011;9989;48.962;9.182;2022-07-17T02:51:08;11.10;;;6.70;;
19679;SDS011;9989;48.962;9.182;2022-07-17T02:53:35;10.77;;;6.20;;
19679;SDS011;9989;48.962;9.182;2022-07-17T02:56:01;10.77;;;6.90;;
19679;SDS011;9989;48.962;9.182;2022-07-17T02:58:26;10.63;;;6.83;;
19679;SDS011;9989;48.962;9.182;2022-07-17T03:00:52;14.57;;;7.30;;
19679;SDS011;9989;48.962;9.182;2022-07-17T03:03:17;12.70;;;6.70;;
19679;SDS011;9989;48.962;9.182;2022-07-17T03:05:45;10.17;;;5.83;;
19679;SDS011;9989;48.962;9.182;2022-07-17T03:08:11;9.83;;;6.37;;
19679;SDS011;9989;48.962;9.182;2022-07-17T03:10:38;12.37;;;6.60;;
19679;SDS011;9989;48.962;9.182;2022-07-17T03:13:04;10.97;;;6.07;;
19679;SDS011;9989;48.962;9.182;2022-07-17T03:15:29;10.43;;;6.13;;
19679;SDS011;9989;48.962;9.182;2022-07-17T03:17:55;10.27;;;6.40;;
19679;SDS011;9989;48.962;9.182;2022-07-17T03:20:20;10.03;;;5.97;;
19679;SDS011;9989;48.962;9.182;2022-07-17T03:22:46;11.33;;;5.97;;
19679;SDS011;9989;48.962;9.182;2022-07-17T03:25:12;9.23;;;5.77;;
19679;SDS011;9989;48.962;9.182;2022-07-17T03:27:37;12.20;;;6.83;;
19679;SDS011;9989;48.962;9.182;2022-07-17T03:30:03;11.77;;;6.50;;
19679;SDS011;9989;48.962;9.182;2022-07-17T03:32:30;9.47;;;5.70;;
19679;SDS011;9989;48.962;9.182;2022-07-17T03:34:55;10.33;;;6.67;;
19679;SDS011;9989;48.962;9.182;2022-07-17T03:37:21;9.90;;;6.30;;
19679;SDS011;9989;48.962;9.182;2022-07-17T03:39:46;11.33;;;6.43;;
19679;SDS011;9989;48.962;9.182;2022-07-17T03:42:12;9.80;;;6.00;;
19679;SDS011;9989;48.962;9.182;2022-07-17T03:44:37;11.43;;;6.10;;
19679;SDS011;9989;48.962;9.182;2022-07-17T03:47:03;15.40;;;6.13;;
19679;SDS011;9989;48.962;9.182;2022-07-17T03:49:29;9.73;;;6.03;;
19679;SDS011;9989;48.962;9.182;2022-07-17T03:51:54;11.37;;;6.57;;
19679;SDS011;9989;48.962;9.182;2022-07-17T03:54:20;9.30;;;6.07;;
19679;SDS011;9989;48.962;9.182;2022-07-17T03:56:45;10.17;;;6.30;;
19679;SDS011;9989;48.962;9.182;2022-07-17T03:59:11;10.03;;;6.07;;
19679;SDS011;9989;48.962;9.182;2022-07-17T04:01:37;11.03;;;6.13;;
19679;SDS011;9989;48.962;9.182;2022-07-17T04:04:02;11.03;;;6.50;;
19679;SDS011;9989;48.962;9.182;2022-07-17T04:06:28;11.33;;;6.53;;
19679;SDS011;9989;48.962;9.182;2022-07-17T04:08:53;11.20;;;6.70;;
19679;SDS011;9989;48.962;9.182;2022-07-17T04:11:19;11.87;;;6.97;;
19679;SDS011;9989;48.962;9.182;2022-07-17T04:13:45;9.27;;;6.23;;
19679;SDS011;9989;48.962;9.182;2022-07-17T04:16:12;9.70;;;6.80;;
19679;SDS011;9989;48.962;9.182;2022-07-17T04:18:37;12.67;;;6.90;;
19679;SDS011;9989;48.962;9.182;2022-07-17T04:21:04;10.20;;;6.47;;
19679;SDS011;9989;48.962;9.182;2022-07-17T04:23:32;10.53;;;6.67;;
19679;SDS011;9989;48.962;9.182;2022-07-17T04:25:58;10.20;;;6.17;;
19679;SDS011;9989;48.962;9.182;2022-07-17T04:28:24;11.23;;;6.80;;
19679;SDS011;9989;48.962;9.182;2022-07-17T04:30:49;10.63;;;6.03;;
19679;SDS011;9989;48.962;9.182;2022-07-17T04:33:15;9.53;;;6.17;;
19679;SDS011;9989;48.962;9.182;2022-07-17T04:35:42;10.23;;;6.50;;
19679;SDS011;9989;48.962;9.182;2022-07-17T04:38:08;9.63;;;6.40;;
19679;SDS011;9989;48.962;9.182;2022-07-17T04:40:34;9.60;;;6.53;;
19679;SDS011;9989;48.962;9.182;2022-07-17T04:43:01;11.40;;;6.47;;
19679;SDS011;9989;48.962;9.182;2022-07-17T04:45:27;11.07;;;6.80;;
19679;SDS011;9989;48.962;9.182;2022-07-17T04:47:53;10.43;;;6.53;;
19679;SDS011;9989;48.962;9.182;2022-07-17T04:50:19;10.07;;;6.27;;
19679;SDS011;9989;48.962;9.182;2022-07-17T04:52:44;11.00;;;6.80;;
19679;SDS011;9989;48.962;9.182;2022-07-17T04:55:10;11.17;;;6.20;;
19679;SDS011;9989;48.962;9.182;2022-07-17T04:57:36;10.37;;;6.43;;
19679;SDS011;9989;48.962;9.182;2022-07-17T05:00:03;9.77;;;6.37;;
19679;SDS011;9989;48.962;9.182;2022-07-17T05:02:30;13.97;;;8.37;;
19679;SDS011;9989;48.962;9.182;2022-07-17T05:04:56;11.40;;;7.23;;
19679;SDS011;9989;48.962;9.182;2022-07-17T05:07:22;12.57;;;7.10;;
19679;SDS011;9989;48.962;9.182;2022-07-17T05:09:48;10.70;;;7.13;;
19679;SDS011;9989;48.962;9.182;2022-07-17T05:12:14;10.13;;;7.50;;
19679;SDS011;9989;48.962;9.182;2022-07-17T05:14:40;10.10;;;6.50;;
19679;SDS011;9989;48.962;9.182;2022-07-17T05:17:05;11.77;;;6.23;;
19679;SDS011;9989;48.962;9.182;2022-07-17T05:19:31;11.67;;;6.97;;
19679;SDS011;9989;48.962;9.182;2022-07-17T05:21:57;10.90;;;7.37;;
19679;SDS011;9989;48.962;9.182;2022-07-17T05:24:23;11.30;;;7.50;;
19679;SDS011;9989;48.962;9.182;2022-07-17T05:26:49;10.57;;;6.50;;
19679;SDS011;9989;48.962;9.182;2022-07-17T05:29:14;10.73;;;6.70;;
19679;SDS011;9989;48.962;9.182;2022-07-17T05:31:40;11.90;;;6.93;;
19679;SDS011;9989;48.962;9.182;2022-07-17T05:34:05;12.33;;;6.53;;
19679;SDS011;9989;48.962;9.182;2022-07-17T05:36:31;11.30;;;7.10;;
19679;SDS011;9989;48.962;9.182;2022-07-17T05:38:56;10.90;;;6.17;;
19679;SDS011;9989;48.962;9.182;2022-07-17T05:41:22;9.43;;;5.90;;
19679;SDS011;9989;48.962;9.182;2022-07-17T05:43:48;10.33;;;7.27;;
19679;SDS011;9989;48.962;9.182;2022-07-17T05:46:13;12.33;;;6.10;;
19679;SDS011;9989;48.962;9.182;2022-07-17T05:48:39;13.60;;;6.90;;
19679;SDS011;9989;48.962;9.182;2022-07-17T05:51:04;11.93;;;8.20;;
19679;SDS011;9989;48.962;9.182;2022-07-17T05:53:30;11.40;;;7.30;;
19679;SDS011;9989;48.962;9.182;2022-07-17T05:55:59;9.13;;;6.37;;
19679;SDS011;9989;48.962;9.182;2022-07-17T05:58:25;9.83;;;6.50;;
19679;SDS011;9989;48.962;9.182;2022-07-17T06:00:50;10.93;;;6.47;;
19679;SDS011;9989;48.962;9.182;2022-07-17T06:03:16;9.73;;;6.60;;
19679;SDS011;9989;48.962;9.182;2022-07-17T06:05:42;10.20;;;6.10;;
19679;SDS011;9989;48.962;9.182;2022-07-17T06:08:08;9.73;;;5.73;;
19679;SDS011;9989;48.962;9.182;2022-07-17T06:10:33;9.07;;;5.33;;
19679;SDS011;9989;48.962;9.182;2022-07-17T06:12:59;9.03;;;5.20;;
19679;SDS011;9989;48.962;9.182;2022-07-17T06:15:25;8.60;;;5.17;;
19679;SDS011;9989;48.962;9.182;2022-07-17T06:17:51;9.03;;;5.13;;
19679;SDS011;9989;48.962;9.182;2022-07-17T06:20:17;9.60;;;5.73;;
19679;SDS011;9989;48.962;9.182;2022-07-17T06:22:43;8.80;;;5.00;;
19679;SDS011;9989;48.962;9.182;2022-07-17T06:25:09;10.30;;;5.50;;
19679;SDS011;9989;48.962;9.182;2022-07-17T06:27:35;9.93;;;5.43;;
19679;SDS011;9989;48.962;9.182;2022-07-17T06:30:03;9.67;;;4.80;;
19679;SDS011;9989;48.962;9.182;2022-07-17T06:32:29;7.20;;;4.20;;
19679;SDS011;9989;48.962;9.182;2022-07-17T06:34:55;9.13;;;5.37;;
19679;SDS011;9989;48.962;9.182;2022-07-17T06:37:20;9.87;;;5.10;;
19679;SDS011;9989;48.962;9.182;2022-07-17T06:39:46;12.37;;;4.93;;
19679;SDS011;9989;48.962;9.182;2022-07-17T06:42:12;8.07;;;4.40;;
19679;SDS011;9989;48.962;9.182;2022-07-17T06:44:37;12.37;;;4.87;;
19679;SDS011;9989;48.962;9.182;2022-07-17T06:47:03;7.80;;;4.40;;
19679;SDS011;9989;48.962;9.182;2022-07-17T06:49:28;8.73;;;4.50;;
19679;SDS011;9989;48.962;9.182;2022-07-17T06:51:54;8.73;;;4.47;;
19679;SDS011;9989;48.962;9.182;2022-07-17T06:54:20;7.33;;;4.30;;
19679;SDS011;9989;48.962;9.182;2022-07-17T06:56:48;7.60;;;3.90;;
19679;SDS011;9989;48.962;9.182;2022-07-17T06:59:14;9.23;;;4.27;;
19679;SDS011;9989;48.962;9.182;2022-07-17T07:01:40;8.57;;;4.03;;
19679;SDS011;9989;48.962;9.182;2022-07-17T07:04:05;8.07;;;4.10;;
19679;SDS011;9989;48.962;9.182;2022-07-17T07:06:31;6.60;;;3.60;;
19679;SDS011;9989;48.962;9.182;2022-07-17T07:08:57;7.27;;;4.07;;
19679;SDS011;9989;48.962;9.182;2022-07-17T07:11:22;9.80;;;4.37;;
19679;SDS011;9989;48.962;9.182;2022-07-17T07:13:48;7.13;;;3.97;;
19679;SDS011;9989;48.962;9.182;2022-07-17T07:16:14;7.90;;;3.77;;
19679;SDS011;9989;48.962;9.182;2022-07-17T07:18:40;9.80;;;3.93;;
19679;SDS011;9989;48.962;9.182;2022-07-17T07:21:06;6.00;;;3.57;;
19679;SDS011;9989;48.962;9.182;2022-07-17T07:23:31;6.27;;;3.57;;
19679;SDS011;9989;48.962;9.182;2022-07-17T07:25:57;6.80;;;3.67;;
19679;SDS011;9989;48.962;9.182;2022-07-17T07:28:22;8.57;;;3.13;;
19679;SDS011;9989;48.962;9.182;2022-07-17T07:30:48;6.70;;;3.50;;
19679;SDS011;9989;48.962;9.182;2022-07-17T07:33:13;9.10;;;4.40;;
19679;SDS011;9989;48.962;9.182;2022-07-17T07:35:41;6.93;;;4.13;;
19679;SDS011;9989;48.962;9.182;2022-07-17T07:38:07;8.07;;;4.00;;
19679;SDS011;9989;48.962;9.182;2022-07-17T07:40:34;8.03;;;4.00;;
19679;SDS011;9989;48.962;9.182;2022-07-17T07:43:00;8.60;;;3.90;;
19679;SDS011;9989;48.962;9.182;2022-07-17T07:45:26;9.00;;;3.97;;
19679;SDS011;9989;48.962;9.182;2022-07-17T07:47:52;8.07;;;3.67;;
19679;SDS011;9989;48.962;9.182;2022-07-17T07:50:18;8.30;;;3.47;;
19679;SDS011;9989;48.962;9.182;2022-07-17T07:52:46;6.57;;;3.40;;
19679;SDS011;9989;48.962;9.182;2022-07-17T07:55:12;6.43;;;3.57;;
19679;SDS011;9989;48.962;9.182;2022-07-17T07:57:38;6.23;;;3.33;;
19679;SDS011;9989;48.962;9.182;2022-07-17T08:00:05;8.50;;;3.30;;
19679;SDS011;9989;48.962;9.182;2022-07-17T08:02:33;6.40;;;3.40;;
19679;SDS011;9989;48.962;9.182;2022-07-17T08:04:59;9.03;;;3.40;;
19679;SDS011;9989;48.962;9.182;2022-07-17T08:07:26;9.63;;;3.83;;
19679;SDS011;9989;48.962;9.182;2022-07-17T08:09:52;9.73;;;3.63;;
19679;SDS011;9989;48.962;9.182;2022-07-17T08:12:18;6.97;;;3.30;;
19679;SDS011;9989;48.962;9.182;2022-07-17T08:14:44;7.23;;;3.47;;
19679;SDS011;9989;48.962;9.182;2022-07-17T08:17:10;7.10;;;2.93;;
19679;SDS011;9989;48.962;9.182;2022-07-17T08:19:35;8.37;;;2.97;;
19679;SDS011;9989;48.962;9.182;2022-07-17T08:22:01;5.83;;;2.90;;
19679;SDS011;9989;48.962;9.182;2022-07-17T08:24:27;4.97;;;2.47;;
19679;SDS011;9989;48.962;9.182;2022-07-17T08:26:52;9.43;;;3.83;;
19679;SDS011;9989;48.962;9.182;2022-07-17T08:29:18;5.23;;;2.77;;
19679;SDS011;9989;48.962;9.182;2022-07-17T08:31:43;5.77;;;2.83;;
19679;SDS011;9989;48.962;9.182;2022-07-17T08:34:09;7.30;;;3.10;;
19679;SDS011;9989;48.962;9.182;2022-07-17T08:36:35;6.30;;;3.40;;
19679;SDS011;9989;48.962;9.182;2022-07-17T08:39:00;7.23;;;3.40;;
19679;SDS011;9989;48.962;9.182;2022-07-17T08:41:28;5.93;;;3.07;;
19679;SDS011;9989;48.962;9.182;2022-07-17T08:43:54;6.87;;;3.00;;
19679;SDS011;9989;48.962;9.182;2022-07-17T08:46:21;6.13;;;3.30;;
19679;SDS011;9989;48.962;9.182;2022-07-17T08:48:50;7.40;;;3.10;;
19679;SDS011;9989;48.962;9.182;2022-07-17T08:51:21;6.13;;;3.03;;
19679;SDS011;9989;48.962;9.182;2022-07-17T08:53:49;5.80;;;2.83;;
19679;SDS011;9989;48.962;9.182;2022-07-17T08:56:14;7.70;;;3.50;;
19679;SDS011;9989;48.962;9.182;2022-07-17T08:58:40;5.90;;;2.77;;
19679;SDS011;9989;48.962;9.182;2022-07-17T09:01:06;6.90;;;3.40;;
19679;SDS011;9989;48.962;9.182;2022-07-17T09:03:31;5.93;;;2.90;;
19679;SDS011;9989;48.962;9.182;2022-07-17T09:05:57;6.17;;;3.23;;
19679;SDS011;9989;48.962;9.182;2022-07-17T09:08:23;8.30;;;3.20;;
19679;SDS011;9989;48.962;9.182;2022-07-17T09:10:51;5.20;;;2.70;;
19679;SDS011;9989;48.962;9.182;2022-07-17T09:13:19;6.27;;;3.20;;
19679;SDS011;9989;48.962;9.182;2022-07-17T09:15:45;6.50;;;3.13;;
19679;SDS011;9989;48.962;9.182;2022-07-17T09:18:12;7.97;;;3.27;;
19679;SDS011;9989;48.962;9.182;2022-07-17T09:20:43;5.23;;;2.60;;
19679;SDS011;9989;48.962;9.182;2022-07-17T09:23:17;8.23;;;3.53;;
19679;SDS011;9989;48.962;9.182;2022-07-17T09:25:44;6.87;;;3.47;;
19679;SDS011;9989;48.962;9.182;2022-07-17T09:28:12;5.77;;;3.00;;
19679;SDS011;9989;48.962;9.182;2022-07-17T09:30:45;7.17;;;3.10;;
19679;SDS011;9989;48.962;9.182;2022-07-17T09:33:14;5.10;;;2.80;;
19679;SDS011;9989;48.962;9.182;2022-07-17T09:35:46;9.03;;;3.30;;
19679;SDS011;9989;48.962;9.182;2022-07-17T09:38:37;5.90;;;3.00;;
19679;SDS011;9989;48.962;9.182;2022-07-17T09:46:09;6.07;;;2.60;;
19679;SDS011;9989;48.962;9.182;2022-07-17T09:48:43;5.60;;;2.67;;
19679;SDS011;9989;48.962;9.182;2022-07-17T09:51:24;5.57;;;2.60;;
19679;SDS011;9989;48.962;9.182;2022-07-17T09:53:54;6.10;;;3.00;;
19679;SDS011;9989;48.962;9.182;2022-07-17T09:56:25;5.37;;;2.70;;
19679;SDS011;9989;48.962;9.182;2022-07-17T09:58:52;5.57;;;2.80;;
19679;SDS011;9989;48.962;9.182;2022-07-17T10:01:22;10.10;;;3.27;;
19679;SDS011;9989;48.962;9.182;2022-07-17T10:03:48;5.47;;;2.60;;
19679;SDS011;9989;48.962;9.182;2022-07-17T10:06:16;6.27;;;2.80;;
19679;SDS011;9989;48.962;9.182;2022-07-17T10:08:42;5.27;;;3.00;;
19679;SDS011;9989;48.962;9.182;2022-07-17T10:11:09;5.70;;;3.17;;
19679;SDS011;9989;48.962;9.182;2022-07-17T10:13:39;5.87;;;3.17;;
19679;SDS011;9989;48.962;9.182;2022-07-17T10:16:06;7.43;;;3.10;;
19679;SDS011;9989;48.962;9.182;2022-07-17T10:18:37;5.57;;;2.70;;
19679;SDS011;9989;48.962;9.182;2022-07-17T10:21:11;6.13;;;3.40;;
19679;SDS011;9989;48.962;9.182;2022-07-17T10:23:42;5.80;;;3.00;;
19679;SDS011;9989;48.962;9.182;2022-07-17T10:26:12;6.17;;;3.30;;
19679;SDS011;9989;48.962;9.182;2022-07-17T10:28:39;7.07;;;3.27;;
19679;SDS011;9989;48.962;9.182;2022-07-17T10:31:05;8.47;;;3.77;;
19679;SDS011;9989;48.962;9.182;2022-07-17T10:33:31;5.30;;;2.73;;
19679;SDS011;9989;48.962;9.182;2022-07-17T10:35:56;10.57;;;3.73;;
19679;SDS011;9989;48.962;9.182;2022-07-17T10:38:24;6.47;;;2.87;;
19679;SDS011;9989;48.962;9.182;2022-07-17T10:41:01;5.90;;;2.60;;
19679;SDS011;9989;48.962;9.182;2022-07-17T10:43:39;5.73;;;2.77;;
19679;SDS011;9989;48.962;9.182;2022-07-17T10:46:07;7.83;;;2.60;;
19679;SDS011;9989;48.962;9.182;2022-07-17T10:48:33;6.40;;;2.63;;
19679;SDS011;9989;48.962;9.182;2022-07-17T10:50:58;5.27;;;3.07;;
19679;SDS011;9989;48.962;9.182;2022-07-17T10:58:25;6.73;;;3.07;;
19679;SDS011;9989;48.962;9.182;2022-07-17T11:01:01;5.70;;;3.00;;
19679;SDS011;9989;48.962;9.182;2022-07-17T11:03:45;6.07;;;2.93;;
19679;SDS011;9989;48.962;9.182;2022-07-17T11:06:28;5.57;;;2.80;;
19679;SDS011;9989;48.962;9.182;2022-07-17T11:09:08;5.20;;;2.93;;
19679;SDS011;9989;48.962;9.182;2022-07-17T11:11:37;4.97;;;2.70;;
19679;SDS011;9989;48.962;9.182;2022-07-17T11:16:35;7.00;;;3.20;;
19679;SDS011;9989;48.962;9.182;2022-07-17T11:19:01;6.40;;;3.00;;
19679;SDS011;9989;48.962;9.182;2022-07-17T11:21:26;6.10;;;3.00;;
19679;SDS011;9989;48.962;9.182;2022-07-17T11:23:53;6.33;;;3.13;;
19679;SDS011;9989;48.962;9.182;2022-07-17T11:26:20;5.63;;;2.60;;
19679;SDS011;9989;48.962;9.182;2022-07-17T11:28:47;5.03;;;2.83;;
19679;SDS011;9989;48.962;9.182;2022-07-17T11:31:15;5.87;;;2.90;;
19679;SDS011;9989;48.962;9.182;2022-07-17T11:33:54;5.80;;;3.00;;
19679;SDS011;9989;48.962;9.182;2022-07-17T11:36:29;5.23;;;2.83;;
19679;SDS011;9989;48.962;9.182;2022-07-17T11:39:20;5.87;;;2.83;;
19679;SDS011;9989;48.962;9.182;2022-07-17T11:41:46;6.33;;;2.73;;
19679;SDS011;9989;48.962;9.182;2022-07-17T11:44:16;4.57;;;2.57;;
19679;SDS011;9989;48.962;9.182;2022-07-17T11:46:44;4.83;;;2.63;;
19679;SDS011;9989;48.962;9.182;2022-07-17T11:49:11;4.80;;;2.80;;
19679;SDS011;9989;48.962;9.182;2022-07-17T11:51:48;5.67;;;2.60;;
19679;SDS011;9989;48.962;9.182;2022-07-17T11:54:15;5.17;;;2.70;;
19679;SDS011;9989;48.962;9.182;2022-07-17T11:56:42;5.80;;;2.70;;
19679;SDS011;9989;48.962;9.182;2022-07-17T11:59:22;5.43;;;2.80;;
19679;SDS011;9989;48.962;9.182;2022-07-17T12:01:53;6.87;;;2.80;;
19679;SDS011;9989;48.962;9.182;2022-07-17T12:04:19;4.63;;;2.37;;
19679;SDS011;9989;48.962;9.182;2022-07-17T12:06:46;6.07;;;2.87;;
19679;SDS011;9989;48.962;9.182;2022-07-17T12:09:26;5.20;;;2.73;;
19679;SDS011;9989;48.962;9.182;2022-07-17T12:11:53;6.80;;;3.20;;
19679;SDS011;9989;48.962;9.182;2022-07-17T12:14:19;6.43;;;2.93;;
19679;SDS011;9989;48.962;9.182;2022-07-17T12:16:45;5.83;;;2.83;;
19679;SDS011;9989;48.962;9.182;2022-07-17T12:26:51;6.30;;;2.70;;
19679;SDS011;9989;48.962;9.182;2022-07-17T12:29:18;6.23;;;2.80;;
19679;SDS011;9989;48.962;9.182;2022-07-17T12:31:45;5.90;;;3.10;;
19679;SDS011;9989;48.962;9.182;2022-07-17T12:34:10;5.13;;;2.87;;
19679;SDS011;9989;48.962;9.182;2022-07-17T12:36:36;5.23;;;2.77;;
19679;SDS011;9989;48.962;9.182;2022-07-17T12:39:02;5.27;;;2.90;;
19679;SDS011;9989;48.962;9.182;2022-07-17T12:41:28;5.00;;;2.70;;
19679;SDS011;9989;48.962;9.182;2022-07-17T12:43:53;6.73;;;2.93;;
19679;SDS011;9989;48.962;9.182;2022-07-17T12:46:19;5.60;;;2.60;;
19679;SDS011;9989;48.962;9.182;2022-07-17T12:48:44;4.67;;;2.47;;
19679;SDS011;9989;48.962;9.182;2022-07-17T12:51:11;5.50;;;2.63;;
19679;SDS011;9989;48.962;9.182;2022-07-17T12:53:43;5.40;;;2.70;;
19679;SDS011;9989;48.962;9.182;2022-07-17T12:56:09;6.60;;;2.60;;
19679;SDS011;9989;48.962;9.182;2022-07-17T12:58:35;5.20;;;2.73;;
19679;SDS011;9989;48.962;9.182;2022-07-17T13:01:02;5.83;;;2.40;;
19679;SDS011;9989;48.962;9.182;2022-07-17T13:03:29;10.63;;;2.63;;
19679;SDS011;9989;48.962;9.182;2022-07-17T13:05:55;5.73;;;2.80;;
19679;SDS011;9989;48.962;9.182;2022-07-17T13:08:21;4.73;;;2.33;;
19679;SDS011;9989;48.962;9.182;2022-07-17T13:10:46;4.70;;;2.30;;
19679;SDS011;9989;48.962;9.182;2022-07-17T13:13:12;6.70;;;2.90;;
19679;SDS011;9989;48.962;9.182;2022-07-17T13:15:38;5.37;;;2.70;;
19679;SDS011;9989;48.962;9.182;2022-07-17T13:18:03;5.67;;;2.73;;
19679;SDS011;9989;48.962;9.182;2022-07-17T13:20:29;4.30;;;2.20;;
19679;SDS011;9989;48.962;9.182;2022-07-17T13:22:55;4.80;;;2.37;;
19679;SDS011;9989;48.962;9.182;2022-07-17T13:25:20;6.30;;;3.00;;
19679;SDS011;9989;48.962;9.182;2022-07-17T13:27:46;5.70;;;2.77;;
19679;SDS011;9989;48.962;9.182;2022-07-17T13:30:11;5.53;;;2.70;;
19679;SDS011;9989;48.962;9.182;2022-07-17T13:32:37;4.50;;;2.10;;
19679;SDS011;9989;48.962;9.182;2022-07-17T13:35:03;6.27;;;2.80;;
19679;SDS011;9989;48.962;9.182;2022-07-17T13:37:31;6.47;;;2.97;;
19679;SDS011;9989;48.962;9.182;2022-07-17T13:39:56;10.33;;;2.60;;
19679;SDS011;9989;48.962;9.182;2022-07-17T13:42:22;7.83;;;2.57;;
19679;SDS011;9989;48.962;9.182;2022-07-17T13:44:48;5.33;;;2.30;;
19679;SDS011;9989;48.962;9.182;2022-07-17T13:47:13;4.73;;;2.47;;
19679;SDS011;9989;48.962;9.182;2022-07-17T13:49:39;6.07;;;2.43;;
19679;SDS011;9989;48.962;9.182;2022-07-17T13:52:04;5.50;;;2.63;;
19679;SDS011;9989;48.962;9.182;2022-07-17T13:54:30;5.30;;;2.60;;
19679;SDS011;9989;48.962;9.182;2022-07-17T13:56:56;4.20;;;2.10;;
19679;SDS011;9989;48.962;9.182;2022-07-17T13:59:22;5.63;;;2.50;;
19679;SDS011;9989;48.962;9.182;2022-07-17T14:01:48;7.40;;;2.30;;
19679;SDS011;9989;48.962;9.182;2022-07-17T14:04:14;5.80;;;2.53;;
19679;SDS011;9989;48.962;9.182;2022-07-17T14:06:39;5.03;;;2.70;;
19679;SDS011;9989;48.962;9.182;2022-07-17T14:09:05;4.43;;;2.27;;
19679;SDS011;9989;48.962;9.182;2022-07-17T14:11:30;6.47;;;2.40;;
19679;SDS011;9989;48.962;9.182;2022-07-17T14:13:56;3.90;;;2.20;;
19679;SDS011;9989;48.962;9.182;2022-07-17T14:16:22;5.03;;;2.40;;
19679;SDS011;9989;48.962;9.182;2022-07-17T14:18:47;5.13;;;2.30;;
19679;SDS011;9989;48.962;9.182;2022-07-17T14:21:29;5.23;;;2.50;;
19679;SDS011;9989;48.962;9.182;2022-07-17T14:24:02;4.77;;;2.50;;
19679;SDS011;9989;48.962;9.182;2022-07-17T14:26:29;5.47;;;2.40;;
19679;SDS011;9989;48.962;9.182;2022-07-17T14:28:55;4.83;;;2.40;;
19679;SDS011;9989;48.962;9.182;2022-07-17T14:31:22;4.73;;;2.53;;
19679;SDS011;9989;48.962;9.182;2022-07-17T14:33:47;6.07;;;2.47;;
19679;SDS011;9989;48.962;9.182;2022-07-17T14:36:13;7.67;;;2.20;;
19679;SDS011;9989;48.962;9.182;2022-07-17T14:38:45;6.10;;;2.40;;
19679;SDS011;9989;48.962;9.182;2022-07-17T14:41:11;4.23;;;2.23;;
19679;SDS011;9989;48.962;9.182;2022-07-17T14:43:37;7.13;;;2.73;;
19679;SDS011;9989;48.962;9.182;2022-07-17T14:46:03;4.87;;;2.20;;
19679;SDS011;9989;48.962;9.182;2022-07-17T14:48:29;5.80;;;2.40;;
19679;SDS011;9989;48.962;9.182;2022-07-17T14:50:56;5.47;;;2.40;;
19679;SDS011;9989;48.962;9.182;2022-07-17T14:53:21;6.90;;;2.90;;
19679;SDS011;9989;48.962;9.182;2022-07-17T14:55:47;4.40;;;2.20;;
19679;SDS011;9989;48.962;9.182;2022-07-17T14:58:13;4.57;;;2.10;;
19679;SDS011;9989;48.962;9.182;2022-07-17T15:00:39;4.93;;;2.30;;
19679;SDS011;9989;48.962;9.182;2022-07-17T15:03:04;5.53;;;2.03;;
19679;SDS011;9989;48.962;9.182;2022-07-17T15:05:30;5.17;;;2.40;;
19679;SDS011;9989;48.962;9.182;2022-07-17T15:07:56;6.43;;;2.27;;
19679;SDS011;9989;48.962;9.182;2022-07-17T15:10:22;4.83;;;2.00;;
19679;SDS011;9989;48.962;9.182;2022-07-17T15:12:47;5.30;;;2.23;;